Grande Prairie, Canada
Current Conditions -  °F | °C
As of 8:35 PM on Sunday 23 Nov 2014 (Local Time) from CYQU Reporting Station
Broken Clouds Broken Clouds  
Wind Chill: 14°   Ceiling: 5500
Heat Index: 21°   Visibility: 15mi
Dew Point: 18°   Wind: 6mph
Humidity: 86%   Direction: 210°SSW
Pressure: 29.76"   Gusts: NA
Location:  55.17°N, 118.79°W
Report Text: CYQU 240335Z 21005KT 15SM BKN055 M06/M08 A2976 RMK SC7 SLP126
Loading
Personal Weather Stations






























Interactive Weather Map New forecast layout! Learn more

10-Day Weather Forecast

Advertisements
Track Severe Weather on mobile